sensor_id;sensor_type;location;lat;lon;timestamp;P1;durP1;ratioP1;P2;durP2;ratioP2
40541;SDS011;49288;52.194;5.676;2024-03-02T00:02:25;6.70;;;3.33;;
40541;SDS011;49288;52.194;5.676;2024-03-02T00:07:29;5.25;;;2.40;;
40541;SDS011;49288;52.194;5.676;2024-03-02T00:12:33;7.55;;;3.10;;
40541;SDS011;49288;52.194;5.676;2024-03-02T00:17:36;7.32;;;3.00;;
40541;SDS011;49288;52.194;5.676;2024-03-02T00:22:39;5.82;;;2.45;;
40541;SDS011;49288;52.194;5.676;2024-03-02T00:27:42;5.65;;;2.83;;
40541;SDS011;49288;52.194;5.676;2024-03-02T00:32:45;5.07;;;2.40;;
40541;SDS011;49288;52.194;5.676;2024-03-02T00:37:48;5.68;;;2.58;;
40541;SDS011;49288;52.194;5.676;2024-03-02T00:42:51;8.40;;;2.75;;
40541;SDS011;49288;52.194;5.676;2024-03-02T00:47:54;3.80;;;1.92;;
40541;SDS011;49288;52.194;5.676;2024-03-02T00:52:57;4.63;;;1.95;;
40541;SDS011;49288;52.194;5.676;2024-03-02T00:58:02;4.85;;;2.53;;
40541;SDS011;49288;52.194;5.676;2024-03-02T01:03:05;6.53;;;2.75;;
40541;SDS011;49288;52.194;5.676;2024-03-02T01:08:09;8.17;;;2.07;;
40541;SDS011;49288;52.194;5.676;2024-03-02T01:13:12;4.87;;;2.40;;
40541;SDS011;49288;52.194;5.676;2024-03-02T01:18:16;5.68;;;2.20;;
40541;SDS011;49288;52.194;5.676;2024-03-02T01:23:19;7.03;;;2.10;;
40541;SDS011;49288;52.194;5.676;2024-03-02T01:28:22;2.28;;;1.60;;
40541;SDS011;49288;52.194;5.676;2024-03-02T01:33:25;5.75;;;2.03;;
40541;SDS011;49288;52.194;5.676;2024-03-02T01:38:28;5.97;;;1.77;;
40541;SDS011;49288;52.194;5.676;2024-03-02T01:43:30;7.68;;;1.90;;
40541;SDS011;49288;52.194;5.676;2024-03-02T01:48:34;2.90;;;1.33;;
40541;SDS011;49288;52.194;5.676;2024-03-02T01:53:37;4.32;;;1.50;;
40541;SDS011;49288;52.194;5.676;2024-03-02T01:58:40;1.73;;;1.30;;
40541;SDS011;49288;52.194;5.676;2024-03-02T02:03:43;1.75;;;1.25;;
40541;SDS011;49288;52.194;5.676;2024-03-02T02:08:46;2.17;;;1.47;;
40541;SDS011;49288;52.194;5.676;2024-03-02T02:13:49;1.38;;;1.10;;
40541;SDS011;49288;52.194;5.676;2024-03-02T02:18:52;3.40;;;1.38;;
40541;SDS011;49288;52.194;5.676;2024-03-02T02:23:55;2.30;;;1.50;;
40541;SDS011;49288;52.194;5.676;2024-03-02T02:28:58;1.75;;;1.38;;
40541;SDS011;49288;52.194;5.676;2024-03-02T02:34:00;10.65;;;1.42;;
40541;SDS011;49288;52.194;5.676;2024-03-02T02:39:03;1.63;;;1.10;;
40541;SDS011;49288;52.194;5.676;2024-03-02T02:44:07;1.30;;;0.93;;
40541;SDS011;49288;52.194;5.676;2024-03-02T02:49:10;3.00;;;1.30;;
40541;SDS011;49288;52.194;5.676;2024-03-02T02:54:12;2.75;;;1.40;;
40541;SDS011;49288;52.194;5.676;2024-03-02T02:59:16;3.80;;;1.53;;
40541;SDS011;49288;52.194;5.676;2024-03-02T03:04:19;3.80;;;1.90;;
40541;SDS011;49288;52.194;5.676;2024-03-02T03:09:24;1.85;;;1.38;;
40541;SDS011;49288;52.194;5.676;2024-03-02T03:14:27;3.33;;;1.33;;
40541;SDS011;49288;52.194;5.676;2024-03-02T03:19:30;1.48;;;1.00;;
40541;SDS011;49288;52.194;5.676;2024-03-02T03:24:33;2.05;;;1.25;;
40541;SDS011;49288;52.194;5.676;2024-03-02T03:29:36;2.90;;;1.40;;
40541;SDS011;49288;52.194;5.676;2024-03-02T03:34:58;6.22;;;1.65;;
40541;SDS011;49288;52.194;5.676;2024-03-02T03:40:02;9.82;;;1.55;;
40541;SDS011;49288;52.194;5.676;2024-03-02T03:45:16;4.65;;;1.58;;
40541;SDS011;49288;52.194;5.676;2024-03-02T03:50:20;3.72;;;1.80;;
40541;SDS011;49288;52.194;5.676;2024-03-02T03:55:23;4.53;;;1.73;;
40541;SDS011;49288;52.194;5.676;2024-03-02T04:00:28;2.17;;;1.55;;
40541;SDS011;49288;52.194;5.676;2024-03-02T04:05:32;4.45;;;1.40;;
40541;SDS011;49288;52.194;5.676;2024-03-02T04:10:37;3.03;;;1.60;;
40541;SDS011;49288;52.194;5.676;2024-03-02T04:15:40;4.20;;;1.70;;
40541;SDS011;49288;52.194;5.676;2024-03-02T04:20:43;5.20;;;2.20;;
40541;SDS011;49288;52.194;5.676;2024-03-02T04:25:48;1.50;;;1.02;;
40541;SDS011;49288;52.194;5.676;2024-03-02T04:30:50;3.42;;;1.50;;
40541;SDS011;49288;52.194;5.676;2024-03-02T04:35:53;2.65;;;1.35;;
40541;SDS011;49288;52.194;5.676;2024-03-02T04:40:56;3.70;;;1.33;;
40541;SDS011;49288;52.194;5.676;2024-03-02T04:46:00;5.97;;;1.50;;
40541;SDS011;49288;52.194;5.676;2024-03-02T04:51:04;1.73;;;1.30;;
40541;SDS011;49288;52.194;5.676;2024-03-02T04:56:06;2.38;;;1.50;;
40541;SDS011;49288;52.194;5.676;2024-03-02T05:01:29;3.03;;;1.40;;
40541;SDS011;49288;52.194;5.676;2024-03-02T05:06:32;3.28;;;1.48;;
40541;SDS011;49288;52.194;5.676;2024-03-02T05:11:35;5.32;;;1.65;;
40541;SDS011;49288;52.194;5.676;2024-03-02T05:16:59;3.00;;;1.65;;
40541;SDS011;49288;52.194;5.676;2024-03-02T05:22:02;2.83;;;1.20;;
40541;SDS011;49288;52.194;5.676;2024-03-02T05:27:05;1.88;;;1.08;;
40541;SDS011;49288;52.194;5.676;2024-03-02T05:32:09;5.28;;;1.40;;
40541;SDS011;49288;52.194;5.676;2024-03-02T05:37:12;3.85;;;1.40;;
40541;SDS011;49288;52.194;5.676;2024-03-02T05:42:15;5.90;;;1.90;;
40541;SDS011;49288;52.194;5.676;2024-03-02T05:47:21;4.68;;;1.40;;
40541;SDS011;49288;52.194;5.676;2024-03-02T05:52:24;1.98;;;1.40;;
40541;SDS011;49288;52.194;5.676;2024-03-02T05:57:27;3.17;;;1.40;;
40541;SDS011;49288;52.194;5.676;2024-03-02T06:02:51;2.28;;;1.73;;
40541;SDS011;49288;52.194;5.676;2024-03-02T06:07:55;4.28;;;1.80;;
40541;SDS011;49288;52.194;5.676;2024-03-02T06:12:59;3.08;;;1.95;;
40541;SDS011;49288;52.194;5.676;2024-03-02T06:18:02;2.25;;;1.58;;
40541;SDS011;49288;52.194;5.676;2024-03-02T06:23:05;7.50;;;2.17;;
40541;SDS011;49288;52.194;5.676;2024-03-02T06:28:08;4.28;;;1.70;;
40541;SDS011;49288;52.194;5.676;2024-03-02T06:33:11;6.00;;;1.80;;
40541;SDS011;49288;52.194;5.676;2024-03-02T06:38:13;2.83;;;1.70;;
40541;SDS011;49288;52.194;5.676;2024-03-02T06:43:16;7.95;;;2.20;;
40541;SDS011;49288;52.194;5.676;2024-03-02T06:48:19;2.92;;;1.83;;
40541;SDS011;49288;52.194;5.676;2024-03-02T06:53:22;2.60;;;1.63;;
40541;SDS011;49288;52.194;5.676;2024-03-02T06:58:25;5.45;;;2.00;;
40541;SDS011;49288;52.194;5.676;2024-03-02T07:03:27;8.95;;;1.80;;
40541;SDS011;49288;52.194;5.676;2024-03-02T07:08:30;4.35;;;1.90;;
40541;SDS011;49288;52.194;5.676;2024-03-02T07:13:34;7.63;;;2.30;;
40541;SDS011;49288;52.194;5.676;2024-03-02T07:18:37;8.25;;;2.13;;
40541;SDS011;49288;52.194;5.676;2024-03-02T07:23:43;4.63;;;1.58;;
40541;SDS011;49288;52.194;5.676;2024-03-02T07:28:46;4.65;;;2.30;;
40541;SDS011;49288;52.194;5.676;2024-03-02T07:33:52;3.17;;;2.00;;
40541;SDS011;49288;52.194;5.676;2024-03-02T07:39:14;4.57;;;2.38;;
40541;SDS011;49288;52.194;5.676;2024-03-02T07:44:18;18.52;;;4.60;;
40541;SDS011;49288;52.194;5.676;2024-03-02T07:49:22;10.10;;;4.07;;
40541;SDS011;49288;52.194;5.676;2024-03-02T07:54:25;7.25;;;3.03;;
40541;SDS011;49288;52.194;5.676;2024-03-02T07:59:28;6.45;;;2.15;;
40541;SDS011;49288;52.194;5.676;2024-03-02T08:04:30;5.70;;;1.98;;
40541;SDS011;49288;52.194;5.676;2024-03-02T08:09:35;4.20;;;1.90;;
40541;SDS011;49288;52.194;5.676;2024-03-02T08:14:43;5.53;;;1.98;;
40541;SDS011;49288;52.194;5.676;2024-03-02T08:19:46;3.25;;;1.85;;
40541;SDS011;49288;52.194;5.676;2024-03-02T08:24:51;1.85;;;1.35;;
40541;SDS011;49288;52.194;5.676;2024-03-02T08:29:54;5.22;;;2.30;;
40541;SDS011;49288;52.194;5.676;2024-03-02T08:34:57;6.22;;;1.95;;
40541;SDS011;49288;52.194;5.676;2024-03-02T08:40:00;7.80;;;2.17;;
40541;SDS011;49288;52.194;5.676;2024-03-02T08:45:06;5.57;;;1.92;;
40541;SDS011;49288;52.194;5.676;2024-03-02T08:50:09;6.22;;;2.10;;
40541;SDS011;49288;52.194;5.676;2024-03-02T08:55:12;5.90;;;1.88;;
40541;SDS011;49288;52.194;5.676;2024-03-02T09:00:15;9.35;;;1.50;;
40541;SDS011;49288;52.194;5.676;2024-03-02T09:05:19;6.67;;;2.10;;
40541;SDS011;49288;52.194;5.676;2024-03-02T09:10:22;8.53;;;2.20;;
40541;SDS011;49288;52.194;5.676;2024-03-02T09:15:29;8.35;;;1.80;;
40541;SDS011;49288;52.194;5.676;2024-03-02T09:20:54;5.82;;;1.55;;
40541;SDS011;49288;52.194;5.676;2024-03-02T09:25:56;5.30;;;1.90;;
40541;SDS011;49288;52.194;5.676;2024-03-02T09:31:00;6.88;;;1.70;;
40541;SDS011;49288;52.194;5.676;2024-03-02T09:36:03;4.40;;;1.40;;
40541;SDS011;49288;52.194;5.676;2024-03-02T09:41:07;11.13;;;2.17;;
40541;SDS011;49288;52.194;5.676;2024-03-02T09:46:10;6.15;;;2.05;;
40541;SDS011;49288;52.194;5.676;2024-03-02T09:51:13;12.80;;;2.15;;
40541;SDS011;49288;52.194;5.676;2024-03-02T09:56:17;11.45;;;2.28;;
40541;SDS011;49288;52.194;5.676;2024-03-02T10:01:21;0.70;;;0.67;;
40541;SDS011;49288;52.194;5.676;2024-03-02T10:06:26;11.15;;;1.70;;
40541;SDS011;49288;52.194;5.676;2024-03-02T10:11:34;8.80;;;1.42;;
40541;SDS011;49288;52.194;5.676;2024-03-02T10:16:41;4.38;;;1.63;;
40541;SDS011;49288;52.194;5.676;2024-03-02T10:21:45;6.47;;;1.83;;
40541;SDS011;49288;52.194;5.676;2024-03-02T10:26:50;7.93;;;1.50;;
40541;SDS011;49288;52.194;5.676;2024-03-02T10:31:53;4.57;;;1.45;;
40541;SDS011;49288;52.194;5.676;2024-03-02T10:36:58;2.38;;;1.25;;
40541;SDS011;49288;52.194;5.676;2024-03-02T10:42:04;9.00;;;1.92;;
40541;SDS011;49288;52.194;5.676;2024-03-02T10:47:09;3.63;;;1.15;;
40541;SDS011;49288;52.194;5.676;2024-03-02T10:52:14;10.13;;;1.80;;
40541;SDS011;49288;52.194;5.676;2024-03-02T10:57:19;7.50;;;1.75;;
40541;SDS011;49288;52.194;5.676;2024-03-02T11:02:25;5.30;;;1.40;;
40541;SDS011;49288;52.194;5.676;2024-03-02T11:07:30;9.73;;;1.63;;
40541;SDS011;49288;52.194;5.676;2024-03-02T11:18:05;6.95;;;1.65;;
40541;SDS011;49288;52.194;5.676;2024-03-02T11:23:12;5.75;;;1.63;;
40541;SDS011;49288;52.194;5.676;2024-03-02T11:28:14;9.93;;;1.80;;
40541;SDS011;49288;52.194;5.676;2024-03-02T11:33:22;3.77;;;1.43;;
40541;SDS011;49288;52.194;5.676;2024-03-02T11:38:30;7.75;;;1.63;;
40541;SDS011;49288;52.194;5.676;2024-03-02T11:43:38;5.10;;;1.30;;
40541;SDS011;49288;52.194;5.676;2024-03-02T11:48:42;8.43;;;1.70;;
40541;SDS011;49288;52.194;5.676;2024-03-02T11:53:46;8.13;;;1.70;;
40541;SDS011;49288;52.194;5.676;2024-03-02T11:58:53;5.18;;;1.73;;
40541;SDS011;49288;52.194;5.676;2024-03-02T12:03:56;4.07;;;1.50;;
40541;SDS011;49288;52.194;5.676;2024-03-02T12:09:01;6.57;;;1.50;;
40541;SDS011;49288;52.194;5.676;2024-03-02T12:14:04;5.90;;;1.20;;
40541;SDS011;49288;52.194;5.676;2024-03-02T12:19:08;3.63;;;1.60;;
40541;SDS011;49288;52.194;5.676;2024-03-02T12:24:12;4.13;;;1.40;;
40541;SDS011;49288;52.194;5.676;2024-03-02T12:29:16;3.80;;;1.40;;
40541;SDS011;49288;52.194;5.676;2024-03-02T12:34:22;6.97;;;1.40;;
40541;SDS011;49288;52.194;5.676;2024-03-02T12:39:28;3.78;;;1.60;;
40541;SDS011;49288;52.194;5.676;2024-03-02T12:44:32;8.30;;;1.70;;
40541;SDS011;49288;52.194;5.676;2024-03-02T12:49:36;4.18;;;1.38;;
40541;SDS011;49288;52.194;5.676;2024-03-02T12:54:39;22.73;;;3.47;;
40541;SDS011;49288;52.194;5.676;2024-03-02T12:59:47;9.00;;;1.50;;
40541;SDS011;49288;52.194;5.676;2024-03-02T13:04:53;5.13;;;1.90;;
40541;SDS011;49288;52.194;5.676;2024-03-02T13:09:56;4.55;;;1.70;;
40541;SDS011;49288;52.194;5.676;2024-03-02T13:14:59;6.18;;;1.40;;
40541;SDS011;49288;52.194;5.676;2024-03-02T13:20:02;5.13;;;1.63;;
40541;SDS011;49288;52.194;5.676;2024-03-02T13:25:07;4.57;;;1.75;;
40541;SDS011;49288;52.194;5.676;2024-03-02T13:30:12;3.22;;;1.30;;
40541;SDS011;49288;52.194;5.676;2024-03-02T13:35:15;9.65;;;1.40;;
40541;SDS011;49288;52.194;5.676;2024-03-02T13:40:18;4.20;;;1.20;;
40541;SDS011;49288;52.194;5.676;2024-03-02T13:45:22;7.07;;;1.90;;
40541;SDS011;49288;52.194;5.676;2024-03-02T13:50:26;7.57;;;1.80;;
40541;SDS011;49288;52.194;5.676;2024-03-02T13:55:28;7.30;;;2.45;;
40541;SDS011;49288;52.194;5.676;2024-03-02T14:00:31;3.67;;;1.98;;
40541;SDS011;49288;52.194;5.676;2024-03-02T14:05:34;4.80;;;2.10;;
40541;SDS011;49288;52.194;5.676;2024-03-02T14:10:38;4.03;;;1.90;;
40541;SDS011;49288;52.194;5.676;2024-03-02T14:15:41;3.47;;;1.75;;
40541;SDS011;49288;52.194;5.676;2024-03-02T14:20:45;5.55;;;2.50;;
40541;SDS011;49288;52.194;5.676;2024-03-02T14:25:54;4.13;;;2.10;;
40541;SDS011;49288;52.194;5.676;2024-03-02T14:30:58;4.88;;;2.00;;
40541;SDS011;49288;52.194;5.676;2024-03-02T14:36:03;5.72;;;2.20;;
40541;SDS011;49288;52.194;5.676;2024-03-02T14:46:09;5.80;;;2.00;;
40541;SDS011;49288;52.194;5.676;2024-03-02T14:51:14;7.85;;;1.90;;
40541;SDS011;49288;52.194;5.676;2024-03-02T14:56:17;5.93;;;1.85;;
40541;SDS011;49288;52.194;5.676;2024-03-02T15:01:21;7.03;;;2.15;;
40541;SDS011;49288;52.194;5.676;2024-03-02T15:06:27;4.95;;;1.58;;
40541;SDS011;49288;52.194;5.676;2024-03-02T15:11:30;7.13;;;1.83;;
40541;SDS011;49288;52.194;5.676;2024-03-02T15:16:33;4.05;;;1.48;;
40541;SDS011;49288;52.194;5.676;2024-03-02T15:21:36;4.63;;;1.77;;
40541;SDS011;49288;52.194;5.676;2024-03-02T15:26:39;5.43;;;1.70;;
40541;SDS011;49288;52.194;5.676;2024-03-02T15:31:42;3.22;;;1.50;;
40541;SDS011;49288;52.194;5.676;2024-03-02T15:36:45;4.85;;;1.55;;
40541;SDS011;49288;52.194;5.676;2024-03-02T15:41:51;6.05;;;1.20;;
40541;SDS011;49288;52.194;5.676;2024-03-02T15:46:54;7.40;;;1.67;;
40541;SDS011;49288;52.194;5.676;2024-03-02T15:51:58;5.80;;;2.05;;
40541;SDS011;49288;52.194;5.676;2024-03-02T15:57:05;6.13;;;1.75;;
40541;SDS011;49288;52.194;5.676;2024-03-02T16:02:10;3.90;;;1.77;;
40541;SDS011;49288;52.194;5.676;2024-03-02T16:07:12;7.35;;;2.17;;
40541;SDS011;49288;52.194;5.676;2024-03-02T16:12:16;7.45;;;2.00;;
40541;SDS011;49288;52.194;5.676;2024-03-02T16:17:19;6.07;;;1.85;;
40541;SDS011;49288;52.194;5.676;2024-03-02T16:22:22;3.65;;;1.88;;
40541;SDS011;49288;52.194;5.676;2024-03-02T16:27:26;5.55;;;1.92;;
40541;SDS011;49288;52.194;5.676;2024-03-02T16:32:30;6.15;;;2.17;;
40541;SDS011;49288;52.194;5.676;2024-03-02T16:37:32;4.80;;;2.10;;
40541;SDS011;49288;52.194;5.676;2024-03-02T16:42:35;5.88;;;2.15;;
40541;SDS011;49288;52.194;5.676;2024-03-02T16:47:41;7.32;;;2.33;;
40541;SDS011;49288;52.194;5.676;2024-03-02T16:52:44;3.40;;;2.10;;
40541;SDS011;49288;52.194;5.676;2024-03-02T16:57:47;5.07;;;2.40;;
40541;SDS011;49288;52.194;5.676;2024-03-02T17:02:50;3.55;;;2.00;;
40541;SDS011;49288;52.194;5.676;2024-03-02T17:07:57;3.85;;;2.00;;
40541;SDS011;49288;52.194;5.676;2024-03-02T17:13:00;7.88;;;2.38;;
40541;SDS011;49288;52.194;5.676;2024-03-02T17:18:03;5.75;;;2.38;;
40541;SDS011;49288;52.194;5.676;2024-03-02T17:23:08;5.18;;;2.40;;
40541;SDS011;49288;52.194;5.676;2024-03-02T17:33:26;5.90;;;2.60;;
40541;SDS011;49288;52.194;5.676;2024-03-02T17:38:30;7.57;;;2.90;;
40541;SDS011;49288;52.194;5.676;2024-03-02T17:43:52;5.15;;;2.60;;
40541;SDS011;49288;52.194;5.676;2024-03-02T17:48:55;4.40;;;2.35;;
40541;SDS011;49288;52.194;5.676;2024-03-02T17:54:01;6.65;;;2.80;;
40541;SDS011;49288;52.194;5.676;2024-03-02T17:59:04;8.02;;;2.78;;
40541;SDS011;49288;52.194;5.676;2024-03-02T18:04:07;4.40;;;2.53;;
40541;SDS011;49288;52.194;5.676;2024-03-02T18:09:11;4.38;;;2.53;;
40541;SDS011;49288;52.194;5.676;2024-03-02T18:14:14;8.68;;;2.63;;
40541;SDS011;49288;52.194;5.676;2024-03-02T18:19:17;6.55;;;2.60;;
40541;SDS011;49288;52.194;5.676;2024-03-02T18:24:20;5.53;;;2.40;;
40541;SDS011;49288;52.194;5.676;2024-03-02T18:29:43;4.10;;;2.30;;
40541;SDS011;49288;52.194;5.676;2024-03-02T18:34:46;5.25;;;2.72;;
40541;SDS011;49288;52.194;5.676;2024-03-02T18:39:49;4.10;;;2.40;;
40541;SDS011;49288;52.194;5.676;2024-03-02T18:44:53;8.45;;;2.55;;
40541;SDS011;49288;52.194;5.676;2024-03-02T18:49:56;5.30;;;2.70;;
40541;SDS011;49288;52.194;5.676;2024-03-02T18:55:00;4.28;;;2.38;;
40541;SDS011;49288;52.194;5.676;2024-03-02T19:00:05;5.70;;;2.78;;
40541;SDS011;49288;52.194;5.676;2024-03-02T19:05:15;5.28;;;2.85;;
40541;SDS011;49288;52.194;5.676;2024-03-02T19:10:18;5.10;;;2.80;;
40541;SDS011;49288;52.194;5.676;2024-03-02T19:15:21;4.47;;;2.72;;
40541;SDS011;49288;52.194;5.676;2024-03-02T19:20:23;5.38;;;3.00;;
40541;SDS011;49288;52.194;5.676;2024-03-02T19:25:26;6.72;;;2.83;;
40541;SDS011;49288;52.194;5.676;2024-03-02T19:30:29;6.10;;;2.80;;
40541;SDS011;49288;52.194;5.676;2024-03-02T19:35:32;4.90;;;2.70;;
40541;SDS011;49288;52.194;5.676;2024-03-02T19:40:35;4.30;;;2.42;;
40541;SDS011;49288;52.194;5.676;2024-03-02T19:45:39;7.93;;;3.05;;
40541;SDS011;49288;52.194;5.676;2024-03-02T19:50:42;4.40;;;2.40;;
40541;SDS011;49288;52.194;5.676;2024-03-02T19:55:45;5.63;;;2.55;;
40541;SDS011;49288;52.194;5.676;2024-03-02T20:00:50;4.75;;;2.65;;
40541;SDS011;49288;52.194;5.676;2024-03-02T20:05:53;7.18;;;3.10;;
40541;SDS011;49288;52.194;5.676;2024-03-02T20:10:56;4.60;;;2.80;;
40541;SDS011;49288;52.194;5.676;2024-03-02T20:15:59;8.50;;;2.95;;
40541;SDS011;49288;52.194;5.676;2024-03-02T20:21:03;7.80;;;2.97;;
40541;SDS011;49288;52.194;5.676;2024-03-02T20:26:06;7.05;;;3.22;;
40541;SDS011;49288;52.194;5.676;2024-03-02T20:36:14;5.40;;;3.05;;
40541;SDS011;49288;52.194;5.676;2024-03-02T20:41:18;6.28;;;2.65;;
40541;SDS011;49288;52.194;5.676;2024-03-02T20:46:21;5.80;;;3.40;;
40541;SDS011;49288;52.194;5.676;2024-03-02T20:51:26;5.60;;;2.92;;
40541;SDS011;49288;52.194;5.676;2024-03-02T20:56:34;5.78;;;3.05;;
40541;SDS011;49288;52.194;5.676;2024-03-02T21:01:38;4.40;;;2.78;;
40541;SDS011;49288;52.194;5.676;2024-03-02T21:06:40;6.65;;;2.80;;
40541;SDS011;49288;52.194;5.676;2024-03-02T21:11:45;4.97;;;2.70;;
40541;SDS011;49288;52.194;5.676;2024-03-02T21:16:50;9.80;;;3.33;;
40541;SDS011;49288;52.194;5.676;2024-03-02T21:21:53;5.75;;;2.90;;
40541;SDS011;49288;52.194;5.676;2024-03-02T21:26:57;6.45;;;3.22;;
40541;SDS011;49288;52.194;5.676;2024-03-02T21:32:19;6.13;;;2.70;;
40541;SDS011;49288;52.194;5.676;2024-03-02T21:37:23;7.80;;;2.90;;
40541;SDS011;49288;52.194;5.676;2024-03-02T21:42:27;5.60;;;3.00;;
40541;SDS011;49288;52.194;5.676;2024-03-02T21:47:30;4.55;;;2.88;;
40541;SDS011;49288;52.194;5.676;2024-03-02T21:52:33;8.00;;;3.20;;
40541;SDS011;49288;52.194;5.676;2024-03-02T21:57:37;8.27;;;2.87;;
40541;SDS011;49288;52.194;5.676;2024-03-02T22:02:40;5.55;;;2.80;;
40541;SDS011;49288;52.194;5.676;2024-03-02T22:07:44;6.28;;;3.40;;
40541;SDS011;49288;52.194;5.676;2024-03-02T22:12:48;6.60;;;3.15;;
40541;SDS011;49288;52.194;5.676;2024-03-02T22:17:51;6.10;;;3.10;;
40541;SDS011;49288;52.194;5.676;2024-03-02T22:22:56;5.22;;;3.08;;
40541;SDS011;49288;52.194;5.676;2024-03-02T22:28:00;5.57;;;3.42;;
40541;SDS011;49288;52.194;5.676;2024-03-02T22:33:03;8.05;;;3.00;;
40541;SDS011;49288;52.194;5.676;2024-03-02T22:38:07;8.30;;;3.28;;
40541;SDS011;49288;52.194;5.676;2024-03-02T22:43:10;6.00;;;3.40;;
40541;SDS011;49288;52.194;5.676;2024-03-02T22:48:13;5.57;;;3.20;;
40541;SDS011;49288;52.194;5.676;2024-03-02T22:53:18;8.82;;;3.72;;
40541;SDS011;49288;52.194;5.676;2024-03-02T22:58:22;9.15;;;4.10;;
40541;SDS011;49288;52.194;5.676;2024-03-02T23:03:25;6.35;;;3.53;;
40541;SDS011;49288;52.194;5.676;2024-03-02T23:08:28;6.95;;;3.50;;
40541;SDS011;49288;52.194;5.676;2024-03-02T23:13:31;9.60;;;3.55;;
40541;SDS011;49288;52.194;5.676;2024-03-02T23:18:34;7.82;;;3.80;;
40541;SDS011;49288;52.194;5.676;2024-03-02T23:23:37;7.82;;;3.40;;
40541;SDS011;49288;52.194;5.676;2024-03-02T23:28:40;7.40;;;3.80;;
40541;SDS011;49288;52.194;5.676;2024-03-02T23:33:43;16.50;;;4.10;;
40541;SDS011;49288;52.194;5.676;2024-03-02T23:38:46;8.00;;;4.50;;
40541;SDS011;49288;52.194;5.676;2024-03-02T23:43:49;9.55;;;4.07;;
40541;SDS011;49288;52.194;5.676;2024-03-02T23:48:51;5.32;;;3.20;;
40541;SDS011;49288;52.194;5.676;2024-03-02T23:53:54;9.75;;;4.32;;
40541;SDS011;49288;52.194;5.676;2024-03-02T23:58:58;10.38;;;4.05;;
